createdAt,value
2023-02-23T00:00:28.922Z,26.33
2023-02-23T00:03:10.966Z,27.95
2023-02-23T00:05:53.955Z,21.63
2023-02-23T00:08:28.897Z,20.43
2023-02-23T00:11:19.579Z,25.80
2023-02-23T00:16:39.754Z,24.20
2023-02-23T00:19:20.503Z,19.75
2023-02-23T00:22:09.696Z,32.25
2023-02-23T00:24:53.097Z,26.77
2023-02-23T00:27:40.928Z,24.70
2023-02-23T00:30:34.608Z,25.70
2023-02-23T00:33:23.763Z,27.35
2023-02-23T00:36:14.302Z,26.55
2023-02-23T00:39:00.394Z,23.45
2023-02-23T00:41:38.259Z,27.35
2023-02-23T00:44:23.645Z,29.17
2023-02-23T00:47:04.001Z,25.92
2023-02-23T00:49:56.662Z,25.95
2023-02-23T00:52:40.048Z,21.98
2023-02-23T00:55:17.938Z,28.08
2023-02-23T00:58:03.754Z,23.02
2023-02-23T01:00:57.044Z,29.10
2023-02-23T01:03:35.634Z,23.40
2023-02-23T01:06:16.008Z,22.20
2023-02-23T01:09:07.712Z,22.50
2023-02-23T01:12:04.886Z,21.48
2023-02-23T01:14:43.884Z,26.88
2023-02-23T01:17:18.036Z,25.70
2023-02-23T01:19:58.958Z,30.52
2023-02-23T01:22:52.895Z,25.27
2023-02-23T01:25:29.408Z,29.55
2023-02-23T01:28:13.047Z,25.38
2023-02-23T01:30:58.008Z,25.65
2023-02-23T01:33:45.635Z,21.35
2023-02-23T01:36:29.030Z,30.65
2023-02-23T01:39:15.191Z,24.40
2023-02-23T01:41:58.540Z,26.95
2023-02-23T01:45:05.693Z,24.13
2023-02-23T01:47:49.873Z,23.65
2023-02-23T01:50:38.393Z,30.27
2023-02-23T01:53:46.648Z,36.45
2023-02-23T01:56:58.428Z,30.80
2023-02-23T01:59:51.097Z,31.75
2023-02-23T02:02:40.289Z,27.48
2023-02-23T02:05:20.192Z,34.17
2023-02-23T02:08:14.101Z,26.13
2023-02-23T02:11:29.034Z,29.15
2023-02-23T02:14:26.051Z,27.52
2023-02-23T02:17:54.557Z,25.38
2023-02-23T02:21:11.714Z,24.17
2023-02-23T02:24:15.812Z,27.08
2023-02-23T02:27:03.969Z,17.83
2023-02-23T02:30:05.110Z,24.80
2023-02-23T02:33:14.148Z,31.88
2023-02-23T02:35:59.760Z,28.63
2023-02-23T02:39:17.538Z,29.67
2023-02-23T02:42:14.502Z,28.27
2023-02-23T02:45:12.082Z,33.28
2023-02-23T02:48:15.958Z,36.15
2023-02-23T02:50:58.184Z,27.30
2023-02-23T02:53:54.606Z,29.65
2023-02-23T02:56:39.771Z,31.35
2023-02-23T02:59:41.911Z,33.72
2023-02-23T03:02:51.374Z,26.13
2023-02-23T03:05:58.606Z,26.80
2023-02-23T03:09:16.688Z,31.63
2023-02-23T03:12:46.988Z,24.83
2023-02-23T03:16:15.626Z,25.38
2023-02-23T03:19:17.447Z,31.67
2023-02-23T03:22:31.240Z,30.33
2023-02-23T03:25:42.619Z,27.58
2023-02-23T03:28:46.492Z,27.42
2023-02-23T03:32:30.742Z,35.15
2023-02-23T03:35:42.784Z,33.55
2023-02-23T03:39:20.611Z,34.17
2023-02-23T03:42:21.776Z,35.58
2023-02-23T03:45:20.337Z,32.70
2023-02-23T03:48:19.043Z,31.83
2023-02-23T03:51:24.488Z,36.70
2023-02-23T03:54:36.761Z,25.83
2023-02-23T03:57:34.777Z,31.60
2023-02-23T04:00:31.217Z,30.75
2023-02-23T04:03:31.682Z,30.33
2023-02-23T04:06:27.177Z,34.67
2023-02-23T04:09:25.337Z,35.00
2023-02-23T04:12:58.786Z,24.33
2023-02-23T04:15:52.223Z,38.55
2023-02-23T04:18:38.117Z,27.33
2023-02-23T04:21:15.893Z,35.65
2023-02-23T04:23:53.988Z,23.63
2023-02-23T04:26:44.712Z,29.23
2023-02-23T04:32:17.733Z,36.13
2023-02-23T04:34:58.846Z,25.17
2023-02-23T04:37:43.810Z,28.15
2023-02-23T04:40:30.251Z,33.15
2023-02-23T04:43:29.124Z,33.15
2023-02-23T04:46:10.964Z,35.33
2023-02-23T04:48:51.222Z,28.88
2023-02-23T04:51:46.713Z,29.42
2023-02-23T04:54:30.936Z,30.48
2023-02-23T04:57:05.982Z,29.42
2023-02-23T04:59:58.727Z,34.65
2023-02-23T05:02:50.610Z,26.52
2023-02-23T05:05:42.587Z,34.08
2023-02-23T05:08:26.882Z,22.60
2023-02-23T05:11:17.239Z,42.72
2023-02-23T05:14:09.083Z,22.80
2023-02-23T05:16:57.198Z,28.73
2023-02-23T05:20:01.190Z,18.70
2023-02-23T05:22:47.285Z,23.35
2023-02-23T05:25:36.964Z,25.08
2023-02-23T05:28:31.378Z,24.23
2023-02-23T05:31:11.093Z,31.40
2023-02-23T05:33:49.853Z,20.17
2023-02-23T05:36:41.693Z,30.33
2023-02-23T05:39:29.918Z,21.35
2023-02-23T05:42:13.463Z,25.42
2023-02-23T05:45:00.415Z,31.60
2023-02-23T05:47:47.823Z,22.75
2023-02-23T05:50:27.270Z,31.55
2023-02-23T05:53:15.287Z,25.35
2023-02-23T05:55:57.031Z,26.63
2023-02-23T05:58:44.862Z,25.60
2023-02-23T06:01:31.878Z,31.00
2023-02-23T06:04:21.087Z,23.27
2023-02-23T06:07:09.080Z,26.80
2023-02-23T06:09:48.899Z,30.38
2023-02-23T06:12:36.403Z,25.88
2023-02-23T06:15:12.862Z,23.77
2023-02-23T06:17:59.657Z,27.55
2023-02-23T06:23:20.855Z,26.13
2023-02-23T06:26:08.385Z,25.38
2023-02-23T06:29:03.588Z,34.30
2023-02-23T06:31:48.106Z,27.27
2023-02-23T06:34:39.932Z,26.38
2023-02-23T06:37:29.265Z,28.63
2023-02-23T06:40:13.913Z,33.88
2023-02-23T06:43:03.296Z,29.05
2023-02-23T06:45:38.853Z,23.63
2023-02-23T06:48:22.112Z,27.33
2023-02-23T06:51:02.466Z,23.23
2023-02-23T06:53:49.994Z,33.60
2023-02-23T06:56:39.150Z,29.70
2023-02-23T06:59:16.784Z,21.05
2023-02-23T07:02:02.400Z,28.40
2023-02-23T07:04:48.632Z,32.95
2023-02-23T07:07:46.626Z,26.00
2023-02-23T07:10:39.490Z,21.92
2023-02-23T07:13:35.484Z,20.90
2023-02-23T07:16:19.978Z,26.30
2023-02-23T07:19:09.312Z,36.78
2023-02-23T07:22:01.232Z,22.73
2023-02-23T07:24:37.660Z,22.52
2023-02-23T07:27:16.988Z,24.15
2023-02-23T07:30:03.466Z,28.38
2023-02-23T07:32:45.914Z,24.58
2023-02-23T07:35:35.540Z,19.70
2023-02-23T07:38:34.717Z,28.05
2023-02-23T07:41:22.318Z,27.63
2023-02-23T07:44:00.837Z,23.45
2023-02-23T07:46:59.463Z,23.98
2023-02-23T07:49:43.815Z,22.17
2023-02-23T07:52:38.631Z,32.33
2023-02-23T07:55:24.693Z,26.95
2023-02-23T07:58:21.980Z,29.13
2023-02-23T08:01:07.604Z,25.17
2023-02-23T08:03:51.454Z,22.10
2023-02-23T08:06:43.676Z,33.33
2023-02-23T08:09:25.569Z,32.85
2023-02-23T08:12:18.311Z,28.20
2023-02-23T08:14:59.853Z,27.08
2023-02-23T08:17:50.179Z,26.27
2023-02-23T08:20:34.645Z,23.25
2023-02-23T08:23:10.555Z,34.85
2023-02-23T08:25:58.152Z,26.55
2023-02-23T08:28:45.895Z,28.02
2023-02-23T08:31:30.975Z,28.70
2023-02-23T08:34:11.555Z,33.80
2023-02-23T08:37:00.305Z,32.25
2023-02-23T08:39:55.423Z,31.15
2023-02-23T08:42:36.864Z,23.27
2023-02-23T08:45:14.823Z,30.90
2023-02-23T08:47:54.909Z,27.55
2023-02-23T08:50:46.927Z,25.02
2023-02-23T08:53:36.265Z,23.10
2023-02-23T08:56:25.225Z,29.17
2023-02-23T08:59:17.311Z,25.23
2023-02-23T09:02:05.830Z,30.75
2023-02-23T09:04:43.965Z,37.30
2023-02-23T09:07:24.951Z,26.90
2023-02-23T09:10:09.942Z,28.15
2023-02-23T09:12:55.074Z,19.88
2023-02-23T09:15:42.487Z,33.67
2023-02-23T09:18:33.058Z,22.65
2023-02-23T09:21:34.862Z,24.77
2023-02-23T09:24:24.786Z,33.92
2023-02-23T09:27:10.965Z,38.53
2023-02-23T09:29:48.982Z,30.50
2023-02-23T09:32:36.894Z,26.30
2023-02-23T09:35:31.478Z,32.40
2023-02-23T09:38:15.256Z,37.50
2023-02-23T09:41:09.002Z,30.83
2023-02-23T09:47:21.165Z,32.90
2023-02-23T09:50:05.463Z,36.00
2023-02-23T09:53:03.357Z,24.27
2023-02-23T09:55:51.716Z,25.75
2023-02-23T09:58:47.853Z,33.60
2023-02-23T10:01:43.957Z,28.02
2023-02-23T10:04:32.515Z,43.88
2023-02-23T10:07:19.450Z,24.85
2023-02-23T10:10:15.931Z,32.20
2023-02-23T10:13:04.955Z,45.63
2023-02-23T10:15:56.899Z,31.13
2023-02-23T10:18:46.988Z,21.30
2023-02-23T10:22:06.596Z,22.35
2023-02-23T10:25:15.854Z,28.00
2023-02-23T10:27:55.870Z,27.23
2023-02-23T10:30:39.931Z,22.58
2023-02-23T10:33:47.535Z,26.63
2023-02-23T10:36:41.242Z,24.02
2023-02-23T10:39:20.487Z,26.88
2023-02-23T10:42:05.397Z,26.92
2023-02-23T10:44:55.758Z,23.25
2023-02-23T10:47:46.612Z,24.67
2023-02-23T10:50:42.202Z,25.37
2023-02-23T10:53:35.796Z,22.60
2023-02-23T10:56:36.411Z,23.50
2023-02-23T10:59:27.832Z,23.58
2023-02-23T11:02:32.030Z,20.35
2023-02-23T11:05:49.685Z,23.20
2023-02-23T11:08:47.882Z,24.17
2023-02-23T11:12:07.401Z,39.67
2023-02-23T11:14:46.870Z,21.30
2023-02-23T11:17:51.969Z,23.73
2023-02-23T11:20:55.166Z,29.60
2023-02-23T11:23:55.629Z,31.35
2023-02-23T11:26:43.685Z,28.45
2023-02-23T11:29:44.889Z,25.08
2023-02-23T11:32:30.615Z,21.23
2023-02-23T11:35:31.652Z,19.52
2023-02-23T11:38:35.483Z,20.25
2023-02-23T11:41:22.832Z,25.27
2023-02-23T11:44:26.400Z,24.35
2023-02-23T11:47:23.042Z,21.73
2023-02-23T11:50:12.051Z,21.38
2023-02-23T11:52:54.712Z,24.60
2023-02-23T11:55:57.752Z,20.30
2023-02-23T11:58:50.801Z,20.15
2023-02-23T12:01:47.014Z,23.25
2023-02-23T12:05:06.418Z,29.13
2023-02-23T12:08:01.558Z,28.13
2023-02-23T12:11:17.828Z,25.55
2023-02-23T12:14:28.201Z,24.52
2023-02-23T12:17:21.423Z,26.85
2023-02-23T12:20:21.827Z,26.83
2023-02-23T12:23:20.856Z,22.48
2023-02-23T12:26:36.996Z,24.88
2023-02-23T12:36:42.422Z,28.02
2023-02-23T12:39:46.103Z,29.23
2023-02-23T12:46:00.335Z,26.65
2023-02-23T12:49:01.806Z,22.38
2023-02-23T12:52:10.806Z,18.77
2023-02-23T12:54:58.533Z,24.10
2023-02-23T12:57:58.082Z,28.70
2023-02-23T13:01:05.751Z,22.60
2023-02-23T13:06:56.868Z,24.70
2023-02-23T13:10:05.468Z,23.52
2023-02-23T13:12:56.624Z,28.23
2023-02-23T13:16:19.445Z,22.50
2023-02-23T13:19:36.390Z,21.65
2023-02-23T13:23:12.426Z,24.10
2023-02-23T13:26:03.655Z,26.05
2023-02-23T13:29:34.818Z,23.70
2023-02-23T13:32:47.425Z,24.90
2023-02-23T13:35:39.859Z,23.30
2023-02-23T13:38:59.887Z,20.38
2023-02-23T13:41:58.150Z,22.83
2023-02-23T13:44:58.111Z,24.85
2023-02-23T13:47:47.263Z,27.17
2023-02-23T13:50:58.944Z,27.65
2023-02-23T13:53:49.701Z,23.30
2023-02-23T13:56:47.411Z,27.27
2023-02-23T13:59:37.697Z,23.80
2023-02-23T14:02:33.353Z,24.00
2023-02-23T14:05:30.777Z,23.83
2023-02-23T14:08:24.885Z,27.08
2023-02-23T14:10:59.994Z,29.60
2023-02-23T14:13:58.040Z,23.80
2023-02-23T14:16:38.714Z,23.85
2023-02-23T14:19:41.241Z,28.23
2023-02-23T14:25:36.642Z,24.92
2023-02-23T14:28:36.548Z,27.40
2023-02-23T14:31:31.440Z,24.75
2023-02-23T14:34:13.333Z,24.05
2023-02-23T14:37:04.877Z,20.60
2023-02-23T14:39:48.836Z,27.02
2023-02-23T14:42:52.034Z,24.08
2023-02-23T14:45:44.723Z,24.13
2023-02-23T14:48:36.676Z,20.63
2023-02-23T14:51:27.597Z,25.08
2023-02-23T14:54:29.084Z,26.15
2023-02-23T14:57:24.817Z,22.23
2023-02-23T15:00:27.874Z,27.13
2023-02-23T15:03:18.825Z,19.88
2023-02-23T15:06:00.048Z,22.08
2023-02-23T15:11:40.906Z,19.45
2023-02-23T15:14:28.834Z,18.00
2023-02-23T15:17:09.375Z,28.38
2023-02-23T15:19:48.856Z,29.55
2023-02-23T15:22:44.907Z,30.13
2023-02-23T15:25:35.070Z,25.58
2023-02-23T15:28:34.331Z,31.25
2023-02-23T15:31:23.269Z,30.60
2023-02-23T15:34:04.513Z,27.08
2023-02-23T15:36:47.206Z,26.60
2023-02-23T15:39:39.972Z,24.27
2023-02-23T15:42:15.657Z,22.40
2023-02-23T15:45:25.277Z,23.42
2023-02-23T15:48:05.822Z,24.67
2023-02-23T15:50:50.254Z,21.25
2023-02-23T15:53:45.855Z,27.33
2023-02-23T15:56:36.493Z,28.35
2023-02-23T15:59:23.362Z,27.13
2023-02-23T16:02:01.846Z,39.03
2023-02-23T16:04:48.913Z,30.08
2023-02-23T16:07:39.238Z,31.25
2023-02-23T16:10:33.675Z,34.90
2023-02-23T16:13:17.747Z,28.40
2023-02-23T16:16:08.225Z,31.45
2023-02-23T16:18:52.714Z,29.48
2023-02-23T16:21:40.458Z,30.17
2023-02-23T16:24:28.833Z,30.73
2023-02-23T16:27:19.965Z,33.10
2023-02-23T16:30:04.590Z,29.70
2023-02-23T16:32:41.993Z,27.88
2023-02-23T16:35:22.939Z,41.75
2023-02-23T16:38:13.935Z,29.83
2023-02-23T16:40:48.857Z,32.80
2023-02-23T16:43:38.444Z,36.60
2023-02-23T16:46:28.299Z,35.45
2023-02-23T16:49:15.940Z,35.70
2023-02-23T16:52:04.990Z,36.97
2023-02-23T16:54:55.973Z,36.50
2023-02-23T16:57:43.270Z,27.98
2023-02-23T17:00:27.032Z,27.33
2023-02-23T17:03:13.350Z,31.95
2023-02-23T17:05:58.628Z,29.40
2023-02-23T17:08:45.933Z,46.25
2023-02-23T17:11:30.289Z,54.60
2023-02-23T17:14:42.945Z,44.45
2023-02-23T17:17:31.459Z,42.72
2023-02-23T17:20:17.818Z,35.90
2023-02-23T17:23:02.872Z,49.03
2023-02-23T17:25:43.734Z,42.53
2023-02-23T17:28:22.824Z,28.63
2023-02-23T17:31:08.230Z,46.92
2023-02-23T17:33:51.934Z,40.15
2023-02-23T17:36:40.800Z,31.75
2023-02-23T17:39:30.954Z,33.70
2023-02-23T17:42:11.299Z,31.52
2023-02-23T17:45:01.097Z,28.52
2023-02-23T17:47:44.168Z,37.25
2023-02-23T17:50:44.209Z,40.75
2023-02-23T17:53:42.313Z,35.42
2023-02-23T17:56:36.228Z,43.15
2023-02-23T17:59:18.985Z,41.63
2023-02-23T18:02:26.140Z,32.67
2023-02-23T18:05:14.533Z,44.35
2023-02-23T18:08:18.402Z,43.75
2023-02-23T18:11:12.773Z,50.42
2023-02-23T18:13:58.193Z,34.38
2023-02-23T18:16:45.004Z,37.45
2023-02-23T18:19:34.534Z,45.47
2023-02-23T18:22:15.277Z,44.75
2023-02-23T18:25:01.474Z,42.67
2023-02-23T18:27:51.306Z,50.17
2023-02-23T18:30:40.610Z,45.53
2023-02-23T18:33:22.090Z,45.63
2023-02-23T18:36:07.803Z,52.42
2023-02-23T18:39:04.943Z,56.50
2023-02-23T18:41:53.532Z,42.42
2023-02-23T18:44:36.995Z,56.60
2023-02-23T18:47:26.085Z,48.45
2023-02-23T18:50:10.747Z,53.50
2023-02-23T18:53:11.704Z,47.50
2023-02-23T18:55:58.531Z,54.07
2023-02-23T18:58:45.811Z,58.35
2023-02-23T19:01:47.194Z,61.20
2023-02-23T19:04:30.541Z,75.18
2023-02-23T19:07:39.523Z,61.70
2023-02-23T19:10:48.494Z,94.30
2023-02-23T19:13:33.115Z,88.57
2023-02-23T19:16:27.960Z,101.97
2023-02-23T19:19:16.505Z,81.88
2023-02-23T19:22:07.971Z,65.03
2023-02-23T19:24:57.876Z,50.72
2023-02-23T19:27:48.950Z,46.72
2023-02-23T19:30:26.699Z,50.75
2023-02-23T19:33:23.087Z,46.20
2023-02-23T19:36:14.381Z,45.08
2023-02-23T19:38:51.674Z,39.47
2023-02-23T19:41:40.766Z,43.13
2023-02-23T19:44:14.752Z,45.22
2023-02-23T19:47:00.841Z,38.47
2023-02-23T19:49:45.659Z,44.42
2023-02-23T19:52:33.485Z,33.83
2023-02-23T19:55:35.306Z,35.80
2023-02-23T19:58:23.854Z,44.33
2023-02-23T20:01:37.742Z,36.75
2023-02-23T20:04:30.093Z,42.53
2023-02-23T20:07:12.912Z,48.70
2023-02-23T20:09:53.653Z,45.92
2023-02-23T20:12:39.826Z,41.55
2023-02-23T20:15:15.617Z,42.38
2023-02-23T20:17:53.869Z,45.95
2023-02-23T20:20:49.878Z,47.22
2023-02-23T20:23:34.089Z,44.03
2023-02-23T20:26:23.563Z,38.45
2023-02-23T20:29:11.175Z,47.33
2023-02-23T20:31:50.873Z,49.22
2023-02-23T20:34:35.407Z,44.28
2023-02-23T20:37:21.276Z,49.38
2023-02-23T20:40:02.077Z,50.05
2023-02-23T20:42:54.469Z,47.95
2023-02-23T20:45:35.170Z,55.63
2023-02-23T20:48:27.822Z,51.88
2023-02-23T20:51:30.429Z,44.05
2023-02-23T20:54:11.854Z,39.63
2023-02-23T20:57:02.444Z,48.67
2023-02-23T20:59:46.286Z,51.67
2023-02-23T21:02:36.926Z,49.40
2023-02-23T21:05:25.301Z,49.13
2023-02-23T21:08:21.967Z,47.17
2023-02-23T21:11:04.883Z,43.08
2023-02-23T21:13:56.608Z,45.75
2023-02-23T21:16:45.295Z,38.33
2023-02-23T21:19:31.377Z,40.70
2023-02-23T21:22:17.968Z,45.30
2023-02-23T21:25:05.862Z,41.05
2023-02-23T21:27:47.199Z,48.80
2023-02-23T21:30:39.603Z,43.20
2023-02-23T21:33:16.824Z,45.55
2023-02-23T21:36:02.649Z,47.97
2023-02-23T21:38:54.225Z,44.08
2023-02-23T21:41:51.215Z,39.60
2023-02-23T21:44:35.862Z,42.40
2023-02-23T21:47:23.881Z,44.10
2023-02-23T21:50:04.837Z,37.13
2023-02-23T21:52:54.589Z,47.20
2023-02-23T21:55:39.894Z,47.92
2023-02-23T21:58:22.853Z,42.83
2023-02-23T22:01:06.270Z,42.47
2023-02-23T22:03:45.848Z,36.58
2023-02-23T22:06:28.798Z,36.05
2023-02-23T22:09:11.840Z,35.58
2023-02-23T22:11:59.155Z,47.28
2023-02-23T22:14:42.902Z,44.00
2023-02-23T22:17:29.502Z,34.15
2023-02-23T22:20:16.239Z,34.92
2023-02-23T22:23:00.492Z,35.65
2023-02-23T22:25:46.900Z,37.05
2023-02-23T22:28:39.693Z,33.55
2023-02-23T22:31:25.208Z,43.47
2023-02-23T22:34:07.868Z,35.05
2023-02-23T22:36:57.985Z,36.08
2023-02-23T22:39:41.841Z,42.20
2023-02-23T22:42:31.370Z,33.47
2023-02-23T22:45:19.558Z,35.90
2023-02-23T22:48:02.768Z,45.63
2023-02-23T22:50:48.171Z,38.97
2023-02-23T22:53:29.841Z,34.97
2023-02-23T22:56:04.963Z,40.85
2023-02-23T22:58:42.809Z,33.17
2023-02-23T23:01:25.365Z,32.20
2023-02-23T23:04:17.813Z,33.65
2023-02-23T23:07:06.542Z,30.38
2023-02-23T23:09:49.228Z,36.15
2023-02-23T23:12:41.471Z,36.25
2023-02-23T23:18:36.108Z,33.78
2023-02-23T23:21:24.814Z,36.75
2023-02-23T23:24:09.831Z,33.97
2023-02-23T23:27:08.296Z,37.03
2023-02-23T23:29:47.836Z,37.10
2023-02-23T23:32:27.896Z,33.78
2023-02-23T23:35:17.981Z,42.15
2023-02-23T23:37:58.926Z,38.10
2023-02-23T23:40:46.960Z,29.27
2023-02-23T23:43:28.720Z,38.22
2023-02-23T23:46:09.105Z,33.10
2023-02-23T23:49:02.562Z,35.70
2023-02-23T23:51:51.010Z,32.33
2023-02-23T23:54:31.051Z,34.95
2023-02-23T23:57:15.319Z,33.30
2023-02-23T23:59:59.870Z,38.35
